Terminal Aerodrome Forecast
Issued by NWS

Current Version | Previous Version | Text Only | Print | Product List | Glossary On
Versions: 1 2 3 4 5 6 7 8 9 10 11 12 13 14 15
280
FTUS45 KTFX 251120
TAFCTB
TAF
KCTB 251120Z 2512/2612 VRB05KT P6SM SCT100
     FM252000 32011KT P6SM SCT060 BKN120
     FM260300 26009KT P6SM SCT100=

USA.gov is the U.S. government's official web portal to all federal, state and local government web resources and services.